Time;durP1;ratioP1;P1;durP2;ratioP2;P2;SDS_P1;SDS_P2;PMS_P1;PMS_P2;Temp;Humidity;BMP_temperature;BMP_pressure;BME280_temperature;BME280_humidity;BME280_pressure;Samples;Min_cycle;Max_cycle;Signal;HPM_P1;HPM_P2
2022/11/01 00:00:08;;;;;;;10.32;4.15;;;;;;;4.30;61.94;100356.38;1793283;78;20893;-84
2022/11/01 00:02:38;;;;;;;8.83;3.87;;;;;;;4.27;61.87;100356.63;1774322;80;21003;-81
2022/11/01 00:05:05;;;;;;;7.45;3.30;;;;;;;4.26;61.80;100356.73;1764553;80;21150;-82
2022/11/01 00:07:32;;;;;;;6.83;3.12;;;;;;;4.25;62.07;100355.05;1768600;79;21012;-81
2022/11/01 00:09:58;;;;;;;6.37;3.40;;;;;;;4.22;61.97;100352.17;1760621;80;21087;-83
2022/11/01 00:12:25;;;;;;;6.35;3.10;;;;;;;4.21;62.15;100350.96;1766347;80;21061;-82
2022/11/01 00:14:52;;;;;;;6.37;3.17;;;;;;;4.20;62.36;100354.08;1774905;79;21014;-81
2022/11/01 00:17:19;;;;;;;9.63;5.83;;;;;;;4.18;62.48;100349.89;1778694;79;21104;-83
2022/11/01 00:19:46;;;;;;;8.48;5.53;;;;;;;4.16;62.46;100349.99;1771915;79;20981;-82
2022/11/01 00:22:12;;;;;;;6.47;4.70;;;;;;;4.17;62.55;100350.34;1775641;79;21046;-82
2022/11/01 00:24:39;;;;;;;8.70;5.47;;;;;;;4.17;62.73;100353.45;1776938;79;21019;-83
2022/11/01 00:27:06;;;;;;;10.58;5.67;;;;;;;4.12;62.87;100346.75;1787737;78;21078;-85
2022/11/01 00:29:32;;;;;;;9.25;4.62;;;;;;;4.11;62.94;100341.59;1796400;75;21184;-82
2022/11/01 00:31:59;;;;;;;7.90;5.60;;;;;;;4.10;62.97;100347.81;1794495;76;21226;-82
2022/11/01 00:34:26;;;;;;;5.30;3.83;;;;;;;4.10;63.06;100342.08;1801864;78;21053;-83
2022/11/01 00:36:52;;;;;;;7.05;3.87;;;;;;;4.07;63.17;100339.66;1757829;80;21517;-81
2022/11/01 00:39:19;;;;;;;4.65;3.08;;;;;;;4.02;63.64;100354.95;1762642;80;22051;-82
2022/11/01 00:41:46;;;;;;;6.15;2.90;;;;;;;4.02;63.64;100354.95;1772349;80;21185;-82
2022/11/01 00:44:12;;;;;;;7.62;4.10;;;;;;;3.97;63.76;100350.48;1772041;80;20993;-82
2022/11/01 00:46:39;;;;;;;5.80;2.72;;;;;;;3.94;63.81;100345.47;1766739;80;21070;-82
2022/11/01 00:49:05;;;;;;;6.75;3.30;;;;;;;3.93;63.83;100352.97;1762016;80;20981;-83
2022/11/01 00:51:32;;;;;;;7.35;3.17;;;;;;;3.92;63.87;100358.72;1766228;81;21531;-82
2022/11/01 00:53:58;;;;;;;6.90;3.92;;;;;;;3.93;63.89;100356.92;1759144;80;21225;-81
2022/11/01 00:56:25;;;;;;;7.12;3.33;;;;;;;3.92;63.94;100352.59;1757180;80;21041;-82
2022/11/01 00:58:52;;;;;;;5.72;2.98;;;;;;;3.93;63.86;100351.66;1766004;80;21074;-83
2022/11/01 01:01:19;;;;;;;5.55;3.52;;;;;;;3.92;63.98;100349.52;1779230;80;21107;-83
2022/11/01 01:03:45;;;;;;;6.60;3.17;;;;;;;3.90;64.17;100352.73;1779825;80;21069;-82
2022/11/01 01:06:12;;;;;;;6.67;3.10;;;;;;;3.86;64.24;100349.96;1772070;79;21091;-83
2022/11/01 01:08:39;;;;;;;6.92;2.98;;;;;;;3.85;64.32;100343.50;1770253;79;21580;-83
2022/11/01 01:11:05;;;;;;;7.50;3.37;;;;;;;3.85;64.32;100343.50;1786255;79;21029;-83
2022/11/01 01:13:32;;;;;;;5.28;2.87;;;;;;;3.80;64.49;100347.75;1786170;79;21020;-84
2022/11/01 01:15:59;;;;;;;6.12;3.60;;;;;;;3.80;64.49;100347.75;1774160;78;21486;-83
2022/11/01 01:18:26;;;;;;;5.05;3.17;;;;;;;3.78;64.74;100348.33;1787580;78;21087;-82
2022/11/01 01:21:01;;;;;;;8.63;3.05;;;;;;;3.77;64.73;100345.36;1764665;80;20947;-81
2022/11/01 01:23:28;;;;;;;5.30;2.87;;;;;;;3.79;64.60;100346.08;1752317;80;21010;-83
2022/11/01 01:25:55;;;;;;;5.22;2.98;;;;;;;3.81;64.73;100343.36;1779849;79;21600;-82
2022/11/01 01:28:21;;;;;;;7.05;3.25;;;;;;;3.81;64.74;100352.55;1784321;79;21111;-82
2022/11/01 01:30:47;;;;;;;4.95;3.20;;;;;;;3.80;64.80;100349.06;1783781;80;21253;-83
2022/11/01 01:33:15;;;;;;;5.53;3.42;;;;;;;3.80;64.81;100352.17;1789626;79;21607;-81
2022/11/01 01:35:41;;;;;;;6.20;3.25;;;;;;;3.76;64.96;100350.72;1773320;79;21374;-79
2022/11/01 01:38:08;;;;;;;4.85;2.60;;;;;;;3.76;64.96;100350.72;1783089;79;21616;-80
2022/11/01 01:40:35;;;;;;;5.53;2.75;;;;;;;3.72;65.08;100340.89;1773183;79;21016;-82
2022/11/01 01:43:02;;;;;;;4.92;2.85;;;;;;;3.72;65.08;100340.89;1781461;79;21534;-82
2022/11/01 01:45:35;;;;;;;7.92;3.47;;;;;;;3.70;65.21;100338.37;1782523;79;21030;-83
2022/11/01 01:48:19;;;;;;;6.05;2.92;;;;;;;3.68;65.27;100344.20;1772533;79;21021;-80
2022/11/01 01:51:00;;;;;;;6.20;3.37;;;;;;;3.66;65.39;100351.36;1768606;79;21021;-81
2022/11/01 01:53:43;;;;;;;5.85;2.98;;;;;;;3.65;65.56;100351.47;1772726;79;21021;-81
2022/11/01 01:56:17;;;;;;;8.95;3.45;;;;;;;3.65;65.56;100351.47;1777572;79;21079;-86
2022/11/01 01:58:53;;;;;;;6.70;3.42;;;;;;;3.63;65.58;100354.67;1771711;79;21049;-85
2022/11/01 02:01:20;;;;;;;6.37;3.30;;;;;;;3.61;65.69;100349.55;1785698;79;21068;-81
2022/11/01 02:03:46;;;;;;;5.22;3.00;;;;;;;3.62;65.69;100351.70;1786318;79;21486;-79
2022/11/01 02:06:16;;;;;;;7.00;3.55;;;;;;;3.61;65.75;100352.19;1776696;79;21431;-83
2022/11/01 02:08:48;;;;;;;8.53;3.55;;;;;;;3.63;65.76;100350.73;1781644;79;21507;-81
2022/11/01 02:11:16;;;;;;;5.78;3.35;;;;;;;3.61;65.81;100355.27;1775477;80;21046;-83
2022/11/01 02:13:44;;;;;;;6.58;3.95;;;;;;;3.61;65.76;100353.50;1780187;79;21062;-83
2022/11/01 02:16:39;;;;;;;7.67;3.22;;;;;;;3.62;65.87;100359.10;1764829;79;21150;-82
2022/11/01 02:19:11;;;;;;;6.35;3.55;;;;;;;3.61;65.92;100357.44;1777155;79;21485;-83
2022/11/01 02:22:14;;;;;;;6.08;3.15;;;;;;;3.60;65.99;100354.91;1784964;79;21099;-83
2022/11/01 02:24:51;;;;;;;5.62;2.90;;;;;;;3.58;66.07;100359.44;1760719;80;21495;-83
2022/11/01 02:27:29;;;;;;;7.03;3.70;;;;;;;3.53;66.18;100354.04;1736731;80;21528;-83
2022/11/01 02:30:19;;;;;;;7.08;3.40;;;;;;;3.53;66.23;100356.66;1785548;78;21069;-84
2022/11/01 02:33:10;;;;;;;8.28;3.55;;;;;;;3.51;66.40;100357.70;1755654;80;21037;-83
2022/11/01 02:35:58;;;;;;;7.53;3.33;;;;;;;3.45;66.49;100358.97;1779034;78;21479;-83
2022/11/01 02:38:46;;;;;;;6.42;3.50;;;;;;;3.45;66.49;100358.97;1759872;81;21128;-82
2022/11/01 02:41:24;;;;;;;7.85;3.37;;;;;;;3.43;66.81;100363.97;1766014;80;21445;-83
2022/11/01 02:44:10;;;;;;;7.22;3.70;;;;;;;3.41;66.95;100363.23;1765422;80;20973;-84
2022/11/01 02:49:39;;;;;;;9.08;3.47;;;;;;;3.40;66.99;100362.86;1757907;80;21506;-85
2022/11/01 02:52:12;;;;;;;5.55;3.20;;;;;;;3.39;67.09;100369.07;1757275;80;21569;-83
2022/11/01 02:54:57;;;;;;;6.03;3.35;;;;;;;3.33;67.19;100368.54;1758974;80;20999;-83
2022/11/01 02:57:40;;;;;;;5.60;2.80;;;;;;;3.37;67.25;100377.53;1756093;80;21077;-84
2022/11/01 03:00:19;;;;;;;6.25;4.25;;;;;;;3.51;67.17;100376.92;1766118;80;21052;-83
2022/11/01 03:02:45;;;;;;;6.97;4.03;;;;;;;3.54;67.23;100379.83;1767076;80;21634;-85
2022/11/01 03:05:32;;;;;;;6.85;4.75;;;;;;;3.45;67.47;100377.35;1766754;80;21025;-85
2022/11/01 03:08:03;;;;;;;12.43;4.65;;;;;;;3.36;67.64;100381.92;1775056;79;20990;-81
2022/11/01 03:10:40;;;;;;;6.63;3.77;;;;;;;3.24;67.92;100377.53;1778095;79;21181;-83
2022/11/01 03:13:28;;;;;;;7.05;4.30;;;;;;;3.11;68.22;100382.77;1752083;79;20936;-81
2022/11/01 03:15:58;;;;;;;7.85;4.47;;;;;;;2.95;68.58;100385.15;1765836;79;21115;-83
2022/11/01 03:18:30;;;;;;;9.28;4.78;;;;;;;2.84;68.93;100385.02;1773382;79;21053;-82
2022/11/01 03:21:14;;;;;;;8.93;5.50;;;;;;;2.58;69.85;100384.59;1786787;79;20974;-86
2022/11/01 03:23:40;;;;;;;10.55;5.65;;;;;;;2.58;69.85;100384.59;1784723;79;21077;-84
2022/11/01 03:26:07;;;;;;;12.50;5.80;;;;;;;2.47;70.12;100382.22;1769114;79;21002;-83
2022/11/01 03:28:39;;;;;;;8.53;5.15;;;;;;;2.40;70.53;100386.17;1780404;79;21085;-85
2022/11/01 03:31:17;;;;;;;10.85;5.53;;;;;;;2.36;70.78;100379.45;1806910;78;21016;-81
2022/11/01 03:33:50;;;;;;;10.23;5.37;;;;;;;2.28;71.04;100376.46;1799383;78;21548;-81
2022/11/01 03:36:18;;;;;;;9.85;5.62;;;;;;;2.27;71.35;100380.04;1749036;81;21037;-81
2022/11/01 03:38:56;;;;;;;7.03;4.90;;;;;;;2.24;71.51;100376.30;1755445;80;21329;-80
2022/11/01 03:41:23;;;;;;;10.30;5.60;;;;;;;2.22;71.76;100377.73;1776230;79;21061;-81
2022/11/01 03:43:50;;;;;;;8.18;5.05;;;;;;;2.21;71.85;100372.58;1770819;78;21026;-81
2022/11/01 03:46:16;;;;;;;8.45;4.60;;;;;;;2.20;71.96;100374.81;1762367;77;21014;-81
2022/11/01 03:48:42;;;;;;;7.12;4.55;;;;;;;2.23;72.04;100370.70;1746309;81;21002;-81
2022/11/01 03:51:09;;;;;;;7.72;4.65;;;;;;;2.22;72.17;100376.86;1767083;81;21030;-81
2022/11/01 03:53:35;;;;;;;9.15;4.67;;;;;;;2.26;72.16;100377.89;1762358;80;21059;-81
2022/11/01 03:56:03;;;;;;;6.62;4.30;;;;;;;2.35;72.14;100383.83;1755265;81;21003;-80
2022/11/01 03:58:44;;;;;;;10.03;4.45;;;;;;;2.31;72.22;100382.83;1763624;80;21514;-82
2022/11/01 04:01:14;;;;;;;6.10;3.87;;;;;;;2.27;72.43;100385.28;1769162;80;21000;-80
2022/11/01 04:03:40;;;;;;;13.28;4.85;;;;;;;2.21;72.75;100385.69;1776837;79;21019;-82
2022/11/01 04:06:07;;;;;;;9.33;4.62;;;;;;;2.21;72.75;100385.69;1759283;80;21233;-81
2022/11/01 04:08:33;;;;;;;11.15;4.67;;;;;;;2.22;72.73;100387.35;1760941;81;20991;-83
2022/11/01 04:11:02;;;;;;;6.58;4.47;;;;;;;2.19;72.76;100384.47;1745084;81;21011;-82
2022/11/01 04:13:30;;;;;;;10.03;4.20;;;;;;;2.23;72.84;100389.05;1771568;80;21090;-79
2022/11/01 04:21:28;;;;;;;7.17;3.55;;;;;;;2.43;72.58;100385.13;1764610;80;21075;-80
2022/11/01 04:23:55;;;;;;;7.80;3.80;;;;;;;2.59;72.28;100391.51;1741162;80;21598;-80
2022/11/01 04:26:22;;;;;;;7.83;4.25;;;;;;;2.64;72.27;100393.37;1776797;80;21000;-82
2022/11/01 04:28:55;;;;;;;10.72;4.37;;;;;;;2.68;72.15;100389.59;1753712;80;21072;-80
2022/11/01 04:31:30;;;;;;;5.70;3.47;;;;;;;2.72;72.04;100395.01;1756703;80;21147;-79
2022/11/01 04:33:59;;;;;;;9.85;3.98;;;;;;;2.73;71.91;100391.45;1758061;80;21025;-82
2022/11/01 04:36:25;;;;;;;6.97;3.83;;;;;;;2.74;71.81;100394.43;1756054;80;21615;-81
2022/11/01 04:38:56;;;;;;;8.35;3.65;;;;;;;2.77;71.61;100397.34;1765411;79;21459;-82
2022/11/01 04:41:26;;;;;;;5.05;3.55;;;;;;;2.77;71.61;100397.34;1782418;79;21005;-83
2022/11/01 04:43:54;;;;;;;9.75;4.35;;;;;;;2.69;71.63;100399.16;1760076;79;21224;-81
2022/11/01 04:46:22;;;;;;;9.30;4.50;;;;;;;2.67;71.70;100402.36;1763236;79;21072;-82
2022/11/01 04:48:49;;;;;;;9.28;4.35;;;;;;;2.62;71.86;100403.13;1761885;80;21048;-81
2022/11/01 04:51:15;;;;;;;9.23;3.80;;;;;;;2.56;71.94;100401.27;1763927;80;20991;-82
2022/11/01 04:53:42;;;;;;;9.33;4.50;;;;;;;2.67;71.96;100409.75;1758906;79;20991;-82
2022/11/01 04:56:10;;;;;;;6.62;3.60;;;;;;;2.72;71.95;100408.12;1755486;79;21420;-83
2022/11/01 04:58:38;;;;;;;8.18;4.42;;;;;;;2.72;72.10;100403.74;1737827;79;21437;-82
2022/11/01 05:01:06;;;;;;;9.48;4.85;;;;;;;2.75;72.12;100406.14;1771596;80;21056;-83
2022/11/01 05:03:34;;;;;;;13.22;4.75;;;;;;;2.76;72.02;100397.80;1774864;80;21478;-84
2022/11/01 05:06:00;;;;;;;9.15;5.25;;;;;;;2.78;72.02;100398.53;1775832;79;21032;-84
2022/11/01 05:08:28;;;;;;;9.00;4.67;;;;;;;2.81;71.96;100408.84;1776735;79;21230;-85
2022/11/01 05:10:55;;;;;;;7.92;4.60;;;;;;;2.81;71.95;100400.96;1786620;80;21188;-83
2022/11/01 05:13:24;;;;;;;10.82;3.92;;;;;;;2.81;71.83;100398.34;1763567;81;21072;-83
2022/11/01 05:15:51;;;;;;;10.30;4.87;;;;;;;2.73;71.88;100401.47;1774727;79;20978;-86
2022/11/01 05:18:18;;;;;;;15.80;7.87;;;;;;;2.66;72.12;100405.91;1776095;80;21358;-85
2022/11/01 05:20:45;;;;;;;15.50;7.62;;;;;;;2.59;72.34;100406.80;1774888;80;21150;-82
2022/11/01 05:23:12;;;;;;;14.13;7.03;;;;;;;2.50;72.60;100404.29;1750260;80;21080;-83
2022/11/01 05:25:40;;;;;;;15.25;7.33;;;;;;;2.50;72.82;100407.39;1766432;79;21030;-85
2022/11/01 05:28:10;;;;;;;13.62;6.40;;;;;;;2.45;73.18;100411.61;1778300;79;21032;-85
2022/11/01 05:30:37;;;;;;;11.25;5.90;;;;;;;2.45;73.18;100411.61;1767727;80;21014;-85
2022/11/01 05:33:05;;;;;;;7.97;4.50;;;;;;;2.60;73.03;100415.50;1773116;80;21489;-84
2022/11/01 05:35:34;;;;;;;10.78;5.15;;;;;;;2.70;73.02;100417.88;1766054;79;21054;-83
2022/11/01 05:38:02;;;;;;;8.83;4.37;;;;;;;2.73;73.09;100414.59;1768186;80;21006;-85
2022/11/01 05:40:31;;;;;;;11.73;6.05;;;;;;;2.73;73.09;100414.59;1765394;80;21025;-85
2022/11/01 05:42:57;;;;;;;9.25;4.78;;;;;;;2.81;73.09;100415.39;1765378;80;21056;-85
2022/11/01 05:45:24;;;;;;;7.83;4.28;;;;;;;2.88;73.03;100407.49;1757771;80;21236;-81
2022/11/01 05:47:51;;;;;;;8.45;4.35;;;;;;;2.98;72.85;100412.13;1776507;79;20975;-85
2022/11/01 05:50:17;;;;;;;8.30;4.42;;;;;;;3.04;72.56;100411.23;1776248;79;21018;-85
2022/11/01 05:52:44;;;;;;;8.95;5.05;;;;;;;3.09;72.53;100410.47;1780227;79;21017;-85
2022/11/01 05:55:10;;;;;;;6.90;4.12;;;;;;;3.16;72.33;100409.56;1768121;80;21002;-84
2022/11/01 05:57:37;;;;;;;12.98;4.25;;;;;;;3.23;72.09;100410.83;1765065;80;21486;-85
2022/11/01 06:00:05;;;;;;;11.57;4.72;;;;;;;3.30;71.86;100408.16;1769805;79;21513;-83
2022/11/01 06:02:35;;;;;;;9.28;4.62;;;;;;;3.34;71.75;100408.31;1764492;79;21071;-87
2022/11/01 06:05:01;;;;;;;7.78;4.12;;;;;;;3.40;71.55;100412.77;1767706;79;21034;-87
2022/11/01 06:07:28;;;;;;;8.45;3.85;;;;;;;3.49;71.31;100418.70;1767657;79;21016;-79
2022/11/01 06:09:55;;;;;;;9.70;5.12;;;;;;;3.66;71.07;100414.91;1765329;79;21450;-77
2022/11/01 06:12:24;;;;;;;9.78;4.60;;;;;;;3.76;71.01;100415.94;1769616;79;21029;-76
2022/11/01 06:14:51;;;;;;;10.72;4.92;;;;;;;3.80;70.83;100414.77;1761332;79;21074;-76
2022/11/01 06:17:17;;;;;;;10.65;5.30;;;;;;;3.89;70.46;100415.44;1764863;80;21084;-78
2022/11/01 06:19:44;;;;;;;7.92;4.92;;;;;;;3.98;70.26;100419.22;1773969;79;21059;-75
2022/11/01 06:22:11;;;;;;;13.10;5.85;;;;;;;4.04;70.04;100417.46;1758957;79;21233;-84
2022/11/01 06:24:38;;;;;;;12.88;5.40;;;;;;;4.07;69.78;100417.70;1786811;79;21136;-85
2022/11/01 06:27:04;;;;;;;10.80;6.33;;;;;;;4.13;69.70;100417.27;1768204;78;21041;-81
2022/11/01 06:29:32;;;;;;;10.45;6.35;;;;;;;4.18;69.48;100415.64;1767735;79;21030;-82
2022/11/01 06:32:01;;;;;;;13.10;6.08;;;;;;;4.24;69.36;100416.50;1752106;80;21021;-83
2022/11/01 06:34:27;;;;;;;7.67;5.37;;;;;;;4.30;69.28;100418.69;1694232;82;21107;-84
2022/11/01 06:36:56;;;;;;;10.90;5.80;;;;;;;4.41;69.27;100413.97;1798502;79;21477;-84
2022/11/01 06:42:20;;;;;;;12.27;5.53;;;;;;;4.64;68.55;100421.49;1825268;77;22595;-83
2022/11/01 06:44:47;;;;;;;12.68;6.00;;;;;;;4.65;68.28;100413.45;1776930;79;20947;-83
2022/11/01 06:47:16;;;;;;;10.05;5.87;;;;;;;4.72;67.96;100422.59;1773179;79;21119;-82
2022/11/01 06:49:44;;;;;;;9.10;6.22;;;;;;;4.76;67.93;100425.01;1776585;80;20898;-84
2022/11/01 06:52:10;;;;;;;9.55;6.15;;;;;;;4.77;67.80;100424.90;1785727;80;21081;-85
2022/11/01 06:54:46;;;;;;;12.03;6.95;;;;;;;4.85;67.70;100421.21;1786705;80;21093;-85
2022/11/01 06:57:15;;;;;;;8.45;5.58;;;;;;;4.91;67.50;100426.50;1761061;80;21098;-85
2022/11/01 06:59:45;;;;;;;10.08;6.28;;;;;;;4.99;67.37;100421.97;1773973;80;21067;-81
2022/11/01 07:02:13;;;;;;;12.15;8.00;;;;;;;5.07;67.21;100422.23;1780058;79;21586;-83
2022/11/01 07:04:40;;;;;;;10.38;6.20;;;;;;;5.15;66.87;100422.48;1746711;80;21070;-84
2022/11/01 07:07:07;;;;;;;12.10;5.87;;;;;;;5.22;66.64;100419.75;1785510;80;21014;-84
2022/11/01 07:09:34;;;;;;;14.43;5.80;;;;;;;5.29;66.44;100418.33;1776550;79;21037;-83
2022/11/01 07:12:03;;;;;;;10.50;5.50;;;;;;;5.38;66.21;100423.84;1768550;79;21518;-82
2022/11/01 07:14:30;;;;;;;12.23;7.05;;;;;;;5.44;66.04;100420.24;1776749;80;21073;-80
2022/11/01 07:16:59;;;;;;;10.88;6.45;;;;;;;5.53;65.94;100422.66;1780274;80;21019;-81
2022/11/01 07:19:25;;;;;;;10.20;6.17;;;;;;;5.65;65.41;100413.78;1779081;79;21053;-81
2022/11/01 07:21:52;;;;;;;15.00;6.47;;;;;;;5.72;65.03;100407.58;1778545;79;21112;-81
2022/11/01 07:24:20;;;;;;;9.03;5.50;;;;;;;5.78;64.78;100409.72;1784276;79;21285;-81
2022/11/01 07:26:46;;;;;;;13.68;6.67;;;;;;;5.84;64.76;100413.19;1716348;82;21616;-80
2022/11/01 07:29:14;;;;;;;12.95;7.03;;;;;;;5.97;64.60;100414.88;1749320;79;21065;-82
2022/11/01 07:31:40;;;;;;;11.12;6.15;;;;;;;6.11;64.44;100405.39;1779066;78;21148;-81
2022/11/01 07:34:07;;;;;;;14.35;6.67;;;;;;;6.26;64.02;100408.12;1769955;80;21046;-82
2022/11/01 07:36:34;;;;;;;12.43;7.20;;;;;;;6.46;63.62;100407.80;1776320;79;21194;-79
2022/11/01 07:39:01;;;;;;;8.40;5.55;;;;;;;6.68;63.32;100411.32;1776308;79;20998;-77
2022/11/01 07:41:28;;;;;;;6.30;4.90;;;;;;;6.90;62.74;100402.47;1772782;79;21533;-77
2022/11/01 07:43:56;;;;;;;9.60;5.45;;;;;;;7.14;62.21;100407.98;1785985;79;21069;-76
2022/11/01 07:46:23;;;;;;;9.25;5.42;;;;;;;7.34;61.58;100407.13;1772827;80;21022;-77
2022/11/01 07:48:50;;;;;;;7.08;4.50;;;;;;;7.54;60.70;100411.19;1759559;80;21149;-78
2022/11/01 07:51:18;;;;;;;11.18;5.95;;;;;;;7.74;59.81;100416.07;1768775;80;20994;-78
2022/11/01 07:53:45;;;;;;;8.50;4.78;;;;;;;7.84;59.67;100407.67;1769735;80;20990;-77
2022/11/01 07:56:11;;;;;;;10.72;5.55;;;;;;;8.00;59.34;100410.66;1771242;80;21668;-79
2022/11/01 07:58:42;;;;;;;8.60;4.78;;;;;;;8.17;59.05;100409.18;1767960;79;21030;-77
2022/11/01 08:01:07;;;;;;;7.70;5.10;;;;;;;8.37;58.06;100402.09;1765570;79;21978;-77
2022/11/01 08:03:34;;;;;;;11.93;4.28;;;;;;;8.53;57.98;100399.42;1766360;80;21028;-79
2022/11/01 08:06:01;;;;;;;10.10;5.17;;;;;;;8.73;57.42;100400.25;1757381;79;21003;-78
2022/11/01 08:08:28;;;;;;;9.10;5.12;;;;;;;8.86;57.13;100396.83;1761650;79;21070;-79
2022/11/01 08:10:55;;;;;;;9.90;6.25;;;;;;;9.02;56.73;100394.45;1760292;80;21121;-76
2022/11/01 08:13:24;;;;;;;8.93;6.90;;;;;;;9.22;56.61;100400.55;1755825;79;21116;-78
2022/11/01 08:15:51;;;;;;;8.90;5.22;;;;;;;9.43;55.62;100394.22;1767926;79;21093;-77
2022/11/01 08:18:26;;;;;;;8.85;5.33;;;;;;;9.59;55.56;100390.44;1752364;80;21037;-78
2022/11/01 08:20:52;;;;;;;9.73;5.47;;;;;;;9.80;55.13;100396.84;1773466;80;21045;-77
2022/11/01 08:23:19;;;;;;;7.67;4.33;;;;;;;10.01;54.68;100397.92;1775554;79;20986;-78
2022/11/01 08:25:46;;;;;;;12.37;4.85;;;;;;;10.24;54.13;100389.55;1768715;79;21129;-77
2022/11/01 08:28:17;;;;;;;7.95;4.78;;;;;;;10.46;53.89;100378.17;1765394;80;21151;-78
2022/11/01 08:30:45;;;;;;;5.55;3.95;;;;;;;10.65;52.87;100378.52;1725384;81;21071;-78
2022/11/01 08:33:12;;;;;;;6.22;4.33;;;;;;;10.74;52.73;100370.93;1721907;81;21624;-74
2022/11/01 08:35:40;;;;;;;12.73;6.12;;;;;;;10.90;52.40;100381.70;1698691;83;21531;-76
2022/11/01 08:38:07;;;;;;;7.62;4.40;;;;;;;11.04;52.20;100374.98;1692039;84;21156;-76
2022/11/01 08:40:34;;;;;;;7.33;3.58;;;;;;;11.20;52.14;100374.25;1698811;82;21134;-79
2022/11/01 08:43:01;;;;;;;5.42;2.87;;;;;;;11.47;51.62;100379.89;1722370;81;21149;-76
2022/11/01 08:45:27;;;;;;;7.92;3.35;;;;;;;11.74;50.40;100378.88;1724316;81;21022;-73
2022/11/01 08:48:02;;;;;;;5.67;3.65;;;;;;;11.97;50.57;100368.99;1724019;81;21102;-75
2022/11/01 08:50:29;;;;;;;7.12;4.00;;;;;;;12.31;49.67;100368.09;1728116;82;21836;-76
2022/11/01 08:52:57;;;;;;;6.28;4.20;;;;;;;12.64;48.82;100374.28;1723152;81;21665;-74
2022/11/01 08:55:24;;;;;;;6.55;4.15;;;;;;;12.97;48.24;100368.94;1712634;81;21099;-76
2022/11/01 08:57:50;;;;;;;8.48;3.62;;;;;;;13.45;47.38;100373.88;1709163;82;21127;-74
2022/11/01 09:00:17;;;;;;;4.70;3.35;;;;;;;13.89;46.10;100368.03;1706067;82;21498;-76
2022/11/01 09:02:44;;;;;;;4.45;2.52;;;;;;;14.27;45.73;100363.30;1705802;82;21173;-75
2022/11/01 09:05:10;;;;;;;7.50;3.47;;;;;;;14.86;44.91;100358.72;1705498;82;21073;-74
2022/11/01 09:07:37;;;;;;;7.25;3.42;;;;;;;15.52;43.85;100358.87;1713504;82;21054;-75
2022/11/01 09:10:06;;;;;;;7.12;3.40;;;;;;;16.20;42.56;100358.17;1682656;83;21105;-76
2022/11/01 09:12:33;;;;;;;5.60;3.62;;;;;;;16.78;41.85;100350.05;1708213;82;21074;-74
2022/11/01 09:15:00;;;;;;;7.25;4.00;;;;;;;17.44;40.55;100352.42;1704617;82;21154;-75
2022/11/01 09:17:26;;;;;;;8.55;4.55;;;;;;;17.97;40.05;100352.37;1703402;82;21097;-75
2022/11/01 09:19:53;;;;;;;8.60;4.17;;;;;;;18.35;39.35;100358.06;1708049;82;21072;-74
2022/11/01 09:22:20;;;;;;;7.75;4.00;;;;;;;18.82;38.77;100349.52;1702487;82;21029;-76
2022/11/01 09:24:48;;;;;;;5.60;3.42;;;;;;;19.38;37.66;100341.47;1703789;83;21055;-78
2022/11/01 09:27:15;;;;;;;5.30;3.98;;;;;;;19.87;37.12;100345.98;1684025;82;21283;-76
2022/11/01 09:29:42;;;;;;;6.42;4.08;;;;;;;20.32;36.22;100339.72;1704734;82;21063;-77
2022/11/01 09:32:08;;;;;;;6.00;4.72;;;;;;;20.84;35.55;100344.44;1706065;82;21576;-75
2022/11/01 09:34:36;;;;;;;6.30;4.45;;;;;;;21.26;34.60;100350.07;1704500;82;21125;-77
2022/11/01 09:37:03;;;;;;;7.35;4.10;;;;;;;21.48;34.69;100344.25;1698447;82;21105;-76
2022/11/01 09:39:32;;;;;;;4.83;3.87;;;;;;;21.88;34.20;100350.01;1705052;82;21058;-76
2022/11/01 09:42:03;;;;;;;6.33;4.03;;;;;;;22.22;33.46;100350.39;1713477;82;21074;-77
2022/11/01 09:44:33;;;;;;;6.80;3.77;;;;;;;22.33;33.02;100337.47;1762810;79;21050;-76
2022/11/01 09:47:07;;;;;;;4.42;3.98;;;;;;;22.50;33.35;100333.57;1768989;79;21546;-77
2022/11/01 09:49:39;;;;;;;6.35;3.75;;;;;;;22.93;32.07;100328.91;1772160;80;21029;-77
2022/11/01 09:52:06;;;;;;;6.87;3.90;;;;;;;23.14;31.97;100328.84;1770988;79;21250;-75
2022/11/01 09:54:34;;;;;;;6.35;4.72;;;;;;;23.48;31.72;100331.22;1781279;80;21057;-77
2022/11/01 09:57:18;;;;;;;5.92;4.35;;;;;;;23.92;31.86;100322.63;1771044;80;21109;-75
2022/11/01 10:00:14;;;;;;;6.85;4.90;;;;;;;24.38;31.08;100321.27;1764239;79;21088;-76
2022/11/01 10:03:07;;;;;;;5.33;4.28;;;;;;;24.77;30.22;100323.58;1767704;79;21140;-77
2022/11/01 10:05:42;;;;;;;7.87;5.15;;;;;;;24.47;30.14;100320.64;1731025;80;25594;-75
2022/11/01 10:08:30;;;;;;;5.10;4.53;;;;;;;23.93;30.68;100317.48;1776322;80;21057;-76
2022/11/01 10:11:43;;;;;;;5.95;4.60;;;;;;;23.93;31.04;100312.05;1773802;80;21064;-77
2022/11/01 10:14:37;;;;;;;6.40;4.78;;;;;;;24.24;30.63;100312.61;1771199;79;26563;-75
2022/11/01 10:17:13;;;;;;;7.30;5.62;;;;;;;23.99;30.56;100307.55;1772220;79;21057;-80
2022/11/01 10:19:48;;;;;;;8.40;6.55;;;;;;;23.94;30.68;100298.80;1767640;80;21077;-76
2022/11/01 10:22:31;;;;;;;6.60;5.67;;;;;;;24.39;30.45;100290.34;1763559;79;21029;-76
2022/11/01 10:25:05;;;;;;;6.97;5.80;;;;;;;24.84;29.56;100294.87;1772815;79;21097;-78
2022/11/01 10:28:18;;;;;;;7.35;5.30;;;;;;;24.72;29.93;100286.30;1768749;79;21465;-77
2022/11/01 10:30:49;;;;;;;12.45;5.12;;;;;;;24.79;29.36;100280.69;1773360;79;21022;-76
2022/11/01 10:33:33;;;;;;;5.30;4.62;;;;;;;24.87;29.57;100277.53;1768102;79;21156;-75
2022/11/01 10:36:04;;;;;;;7.37;5.85;;;;;;;25.47;29.16;100268.28;1702939;82;21620;-77
2022/11/01 10:38:36;;;;;;;7.55;5.60;;;;;;;26.20;28.65;100264.70;1703933;83;21095;-76
2022/11/01 10:41:17;;;;;;;6.72;5.72;;;;;;;26.72;27.79;100260.50;1703622;82;21074;-77
2022/11/01 10:43:48;;;;;;;7.75;5.58;;;;;;;27.03;27.23;100264.22;1706546;82;21123;-76
2022/11/01 10:46:20;;;;;;;7.37;6.35;;;;;;;27.16;26.79;100262.93;1706461;81;21551;-74
2022/11/01 10:48:51;;;;;;;5.92;5.33;;;;;;;27.29;26.78;100265.72;1707538;81;21610;-73
2022/11/01 10:51:19;;;;;;;6.28;4.60;;;;;;;27.57;26.39;100254.92;1708807;82;21090;-72
2022/11/01 10:53:51;;;;;;;6.03;4.10;;;;;;;27.92;25.95;100253.38;1712177;82;21350;-75
2022/11/01 10:56:31;;;;;;;7.22;4.78;;;;;;;28.26;25.51;100255.60;1685215;83;21129;-77
2022/11/01 10:59:15;;;;;;;7.85;5.15;;;;;;;28.55;25.43;100254.52;1706609;82;21097;-73
2022/11/01 11:01:42;;;;;;;5.70;5.20;;;;;;;28.85;25.34;100253.36;1705604;81;21030;-72
2022/11/01 11:04:14;;;;;;;5.12;4.62;;;;;;;28.97;25.17;100246.47;1705273;82;21113;-73
2022/11/01 11:06:42;;;;;;;6.65;4.97;;;;;;;29.18;25.01;100243.14;1706966;81;21549;-74
2022/11/01 11:09:28;;;;;;;5.72;4.50;;;;;;;29.17;24.96;100240.16;1703090;83;21638;-75
2022/11/01 11:12:00;;;;;;;6.20;4.85;;;;;;;29.37;24.85;100247.44;1707065;83;21086;-75
2022/11/01 11:14:27;;;;;;;10.40;4.50;;;;;;;29.53;24.42;100245.99;1710081;82;21006;-76
2022/11/01 11:16:57;;;;;;;7.67;5.03;;;;;;;29.39;24.71;100239.77;1704945;82;21121;-74
2022/11/01 11:19:33;;;;;;;6.37;4.55;;;;;;;29.46;24.69;100236.73;1709740;82;21284;-74
2022/11/01 11:22:02;;;;;;;8.78;4.35;;;;;;;29.56;24.50;100240.77;1704797;82;21050;-75
2022/11/01 11:24:42;;;;;;;6.75;4.50;;;;;;;29.71;24.39;100239.88;1691741;83;22466;-76
2022/11/01 11:27:20;;;;;;;4.78;4.17;;;;;;;30.01;24.01;100239.41;1709707;82;21062;-74
2022/11/01 11:29:54;;;;;;;4.67;3.65;;;;;;;30.12;23.51;100238.23;1688446;82;21129;-75
2022/11/01 11:32:28;;;;;;;4.08;3.02;;;;;;;30.12;23.23;100230.01;1710109;83;21046;-76
2022/11/01 11:35:05;;;;;;;4.28;2.70;;;;;;;30.12;23.06;100227.83;1710275;83;21066;-73
2022/11/01 11:37:34;;;;;;;3.30;3.00;;;;;;;30.36;22.65;100235.56;1705848;82;21091;-74
2022/11/01 11:40:27;;;;;;;4.78;3.67;;;;;;;30.48;22.47;100235.20;1708183;82;21588;-74
2022/11/01 11:42:57;;;;;;;5.85;3.33;;;;;;;30.82;22.40;100231.55;1701736;82;21039;-76
2022/11/01 11:45:28;;;;;;;5.85;3.70;;;;;;;31.21;22.33;100232.49;1707789;83;21073;-75
2022/11/01 11:47:57;;;;;;;6.17;3.60;;;;;;;31.42;21.94;100230.30;1711161;82;21019;-73
2022/11/01 11:50:33;;;;;;;4.05;3.60;;;;;;;31.16;21.99;100230.08;1668213;83;21581;-75
2022/11/01 11:53:21;;;;;;;3.95;3.27;;;;;;;30.36;22.27;100244.35;1702821;83;21403;-73
2022/11/01 11:55:55;;;;;;;4.42;3.58;;;;;;;29.24;22.87;100237.09;1705497;82;21046;-73